Time;durP1;ratioP1;P1;durP2;ratioP2;P2;SDS_P1;SDS_P2;PMS_P1;PMS_P2;Temp;Humidity;BMP_temperature;BMP_pressure;BME280_temperature;BME280_humidity;BME280_pressure;Samples;Min_cycle;Max_cycle;Signal;HPM_P1;HPM_P2
2022/06/07 00:02:24;;;;;;;3.85;1.75;;;;;;;19.03;73.64;99807.94;4453161;32;34440;-59
2022/06/07 00:04:53;;;;;;;4.32;2.08;;;;;;;18.64;75.06;99811.84;4432873;32;33507;-59
2022/06/07 00:07:22;;;;;;;3.70;1.73;;;;;;;18.31;77.36;99808.78;4432063;32;33442;-58
2022/06/07 00:09:50;;;;;;;6.95;2.03;;;;;;;18.13;78.22;99810.28;4442426;32;34393;-58
2022/06/07 00:12:18;;;;;;;3.85;1.98;;;;;;;18.25;77.73;99804.34;4430226;32;33944;-58
2022/06/07 00:14:46;;;;;;;3.58;1.80;;;;;;;18.28;77.40;99800.00;4447301;32;33884;-57
2022/06/07 00:17:14;;;;;;;3.72;1.92;;;;;;;18.10;77.96;99805.03;4447738;32;33188;-57
2022/06/07 00:19:42;;;;;;;6.15;2.00;;;;;;;18.26;77.20;99808.72;4451429;32;34596;-57
2022/06/07 00:22:09;;;;;;;5.18;1.77;;;;;;;18.18;77.36;99806.00;4452020;32;34633;-57
2022/06/07 00:24:37;;;;;;;2.78;1.70;;;;;;;18.07;77.55;99804.97;4424887;32;33569;-57
2022/06/07 00:27:06;;;;;;;4.97;1.70;;;;;;;17.90;78.34;99803.84;4453170;32;33260;-57
2022/06/07 00:29:34;;;;;;;4.78;1.70;;;;;;;17.85;79.06;99799.41;4448003;32;33525;-57
2022/06/07 00:32:04;;;;;;;3.72;2.08;;;;;;;17.72;80.11;99807.91;4451219;32;33662;-57
2022/06/07 00:34:32;;;;;;;4.78;1.90;;;;;;;17.66;80.54;99798.19;4453337;32;34614;-57
2022/06/07 00:37:00;;;;;;;4.05;1.67;;;;;;;17.76;80.05;99799.22;4450564;32;33970;-57
2022/06/07 00:39:28;;;;;;;3.17;1.45;;;;;;;18.04;77.56;99794.41;4424184;32;33156;-57
2022/06/07 00:41:56;;;;;;;2.78;1.30;;;;;;;18.14;76.35;99798.97;4445376;32;33670;-57
2022/06/07 00:44:26;;;;;;;3.10;1.50;;;;;;;18.33;75.37;99797.47;4444299;32;33846;-57
2022/06/07 00:46:59;;;;;;;3.83;1.52;;;;;;;18.18;75.02;99803.37;4452149;32;32979;-57
2022/06/07 00:49:29;;;;;;;3.35;1.62;;;;;;;18.05;76.65;99796.19;4457084;32;33904;-57
2022/06/07 00:51:56;;;;;;;3.10;1.40;;;;;;;18.14;76.16;99796.34;4432040;32;34429;-57
2022/06/07 00:54:27;;;;;;;2.87;1.62;;;;;;;17.64;78.13;99793.81;4449627;32;34649;-57
2022/06/07 00:56:56;;;;;;;3.53;1.58;;;;;;;17.20;79.76;99792.19;4453223;32;33751;-57
2022/06/07 00:59:24;;;;;;;3.00;1.50;;;;;;;17.58;78.05;99785.84;4448628;32;34659;-57
2022/06/07 01:01:52;;;;;;;3.00;1.55;;;;;;;17.49;78.45;99795.31;4446235;32;33729;-56
2022/06/07 01:04:23;;;;;;;4.87;1.80;;;;;;;17.55;78.03;99796.28;4437237;32;32272;-57
2022/06/07 01:12:24;;;;;;;3.60;1.85;;;;;;;17.63;78.99;99786.78;4438921;32;34493;-56
2022/06/07 01:14:52;;;;;;;3.50;1.90;;;;;;;17.76;78.48;99778.28;4451779;32;34512;-56
2022/06/07 01:17:19;;;;;;;2.62;1.60;;;;;;;17.87;77.10;99779.34;4453727;32;33842;-57
2022/06/07 01:19:47;;;;;;;3.90;1.42;;;;;;;17.87;76.75;99781.09;4432665;32;34482;-58
2022/06/07 01:22:16;;;;;;;4.43;1.60;;;;;;;18.16;74.99;99771.03;4453234;32;34618;-56
2022/06/07 01:24:44;;;;;;;4.35;1.75;;;;;;;18.16;75.21;99768.41;4449300;32;33582;-57
2022/06/07 01:27:12;;;;;;;2.60;1.40;;;;;;;17.76;77.17;99778.28;4451160;32;34169;-57
2022/06/07 01:29:42;;;;;;;2.60;1.55;;;;;;;18.03;76.55;99776.94;4448446;32;34701;-57
2022/06/07 01:32:10;;;;;;;3.95;1.50;;;;;;;18.39;73.79;99771.31;4451309;32;33009;-58
2022/06/07 01:34:42;;;;;;;4.65;1.50;;;;;;;17.76;76.29;99762.56;4444075;32;33819;-57
2022/06/07 01:37:15;;;;;;;3.65;1.40;;;;;;;17.48;76.87;99772.59;4453963;32;33262;-57
2022/06/07 01:42:30;;;;;;;3.28;1.45;;;;;;;17.41;77.71;99769.84;4432643;32;32175;-57
2022/06/07 01:44:58;;;;;;;2.97;1.42;;;;;;;18.28;73.76;99759.81;4438533;32;33562;-57
2022/06/07 01:47:28;;;;;;;2.92;1.55;;;;;;;17.80;75.42;99766.97;4440825;32;32474;-57
2022/06/07 01:49:57;;;;;;;2.20;1.40;;;;;;;17.47;77.19;99765.59;4449351;32;34429;-58
2022/06/07 01:52:27;;;;;;;3.28;1.40;;;;;;;17.64;75.86;99759.75;4442768;32;33740;-57
2022/06/07 01:54:55;;;;;;;3.17;1.35;;;;;;;17.65;76.13;99769.34;4452899;32;33880;-57
2022/06/07 01:57:23;;;;;;;2.97;1.30;;;;;;;17.46;77.27;99768.19;4434483;32;33339;-57
2022/06/07 01:59:51;;;;;;;3.35;1.25;;;;;;;17.29;78.28;99765.31;4454732;32;34582;-56
2022/06/07 02:02:22;;;;;;;2.67;1.70;;;;;;;17.65;76.90;99758.88;4446893;32;33857;-58
2022/06/07 02:04:50;;;;;;;2.97;1.23;;;;;;;17.84;76.44;99760.06;4455919;32;33583;-57
2022/06/07 02:07:19;;;;;;;2.70;1.45;;;;;;;17.40;78.28;99755.91;4444461;32;32933;-57
2022/06/07 02:09:47;;;;;;;3.47;1.60;;;;;;;17.64;77.45;99755.38;4433219;32;33886;-57
2022/06/07 02:12:15;;;;;;;4.93;1.85;;;;;;;17.49;77.49;99748.16;4443797;32;34771;-57
2022/06/07 02:14:43;;;;;;;2.72;1.33;;;;;;;17.42;77.88;99741.09;4434820;32;33982;-58
2022/06/07 02:17:10;;;;;;;3.78;1.40;;;;;;;17.37;78.07;99736.63;4448917;32;33217;-56
2022/06/07 02:19:40;;;;;;;4.87;1.30;;;;;;;17.32;78.39;99744.38;4430412;32;33618;-57
2022/06/07 02:22:07;;;;;;;3.37;1.48;;;;;;;17.25;78.68;99734.69;4439533;32;34759;-57
2022/06/07 02:24:35;;;;;;;4.85;1.70;;;;;;;17.06;79.43;99736.97;4446642;32;34734;-57
2022/06/07 02:27:10;;;;;;;2.87;1.30;;;;;;;17.19;78.88;99739.81;4434256;32;33403;-57
2022/06/07 02:29:41;;;;;;;2.10;1.30;;;;;;;17.79;76.12;99725.03;4446038;32;33994;-57
2022/06/07 02:32:12;;;;;;;2.30;1.30;;;;;;;17.38;77.31;99731.41;4450921;32;33704;-57
2022/06/07 02:34:41;;;;;;;2.83;1.55;;;;;;;17.34;78.17;99726.97;4436897;32;34069;-58
2022/06/07 02:37:09;;;;;;;2.92;1.40;;;;;;;17.45;77.98;99725.41;4429635;32;34192;-57
2022/06/07 02:39:37;;;;;;;3.53;1.40;;;;;;;17.17;79.94;99733.66;4430130;32;33761;-57
2022/06/07 02:42:06;;;;;;;4.62;1.40;;;;;;;17.20;80.15;99731.09;4447340;32;34068;-58
2022/06/07 02:44:34;;;;;;;3.47;1.55;;;;;;;17.00;80.48;99742.13;4451088;32;33464;-57
2022/06/07 02:47:03;;;;;;;3.42;1.42;;;;;;;17.06;79.69;99736.97;4444595;32;34111;-57
2022/06/07 02:49:31;;;;;;;2.62;1.30;;;;;;;17.07;79.53;99732.63;4454580;32;34093;-57
2022/06/07 02:52:00;;;;;;;2.72;1.37;;;;;;;17.02;79.20;99735.16;4441790;32;33495;-57
2022/06/07 02:54:37;;;;;;;4.60;1.55;;;;;;;17.14;78.91;99737.13;4447756;32;34483;-57
2022/06/07 02:57:05;;;;;;;3.40;1.70;;;;;;;16.73;80.82;99725.88;4450489;32;34110;-57
2022/06/07 02:59:33;;;;;;;2.03;1.40;;;;;;;16.47;82.56;99731.47;4432837;32;33476;-56
2022/06/07 03:02:02;;;;;;;2.90;1.55;;;;;;;16.53;82.80;99734.22;4448427;32;33791;-57
2022/06/07 03:04:31;;;;;;;3.62;1.70;;;;;;;16.70;81.92;99738.03;4431412;32;34040;-56
2022/06/07 03:07:00;;;;;;;2.30;1.42;;;;;;;16.78;81.67;99745.16;4444987;32;33450;-57
2022/06/07 03:09:28;;;;;;;3.30;1.35;;;;;;;16.91;81.10;99744.56;4446427;32;33411;-58
2022/06/07 03:11:57;;;;;;;4.80;1.37;;;;;;;17.07;80.28;99744.00;4448518;32;33918;-58
2022/06/07 03:14:25;;;;;;;2.67;1.48;;;;;;;17.83;76.66;99732.97;4442995;32;33690;-57
2022/06/07 03:16:58;;;;;;;2.85;1.30;;;;;;;17.31;78.84;99732.16;4452146;32;34927;-57
2022/06/07 03:19:28;;;;;;;2.97;1.42;;;;;;;17.41;78.79;99734.06;4446760;32;33489;-57
2022/06/07 03:21:56;;;;;;;5.40;1.67;;;;;;;17.32;80.00;99731.31;4449821;32;33829;-57
2022/06/07 03:24:28;;;;;;;3.30;1.65;;;;;;;17.63;78.53;99742.25;4438524;32;33675;-57
2022/06/07 03:26:55;;;;;;;2.65;1.52;;;;;;;17.48;79.53;99733.31;4436865;32;32739;-57
2022/06/07 03:29:24;;;;;;;3.95;1.73;;;;;;;17.72;77.89;99729.31;4448158;32;33686;-57
2022/06/07 03:31:52;;;;;;;3.22;1.50;;;;;;;17.75;77.30;99734.59;4451886;32;34709;-58
2022/06/07 03:34:20;;;;;;;3.62;1.65;;;;;;;17.94;76.50;99737.50;4436371;32;33599;-57
2022/06/07 03:36:48;;;;;;;2.67;1.42;;;;;;;17.91;76.65;99740.97;4437021;32;33183;-57
2022/06/07 03:39:16;;;;;;;4.50;1.48;;;;;;;17.79;76.40;99731.16;4447234;32;34467;-57
2022/06/07 03:41:45;;;;;;;4.18;1.75;;;;;;;17.77;77.59;99738.12;4446444;32;33911;-57
2022/06/07 03:44:14;;;;;;;2.28;1.42;;;;;;;17.57;79.18;99734.31;4451080;32;33793;-57
2022/06/07 03:46:43;;;;;;;3.15;1.55;;;;;;;18.18;76.94;99732.59;4450054;32;33245;-57
2022/06/07 03:49:13;;;;;;;2.83;1.20;;;;;;;19.01;72.83;99736.19;4442139;32;33886;-57
2022/06/07 03:51:42;;;;;;;3.33;1.77;;;;;;;18.06;76.61;99733.31;4443835;32;33535;-57
2022/06/07 03:54:10;;;;;;;3.25;1.75;;;;;;;18.15;78.34;99734.28;4442168;32;34000;-58
2022/06/07 03:56:38;;;;;;;2.92;1.77;;;;;;;18.53;76.28;99734.75;4443512;32;34263;-58
2022/06/07 03:59:07;;;;;;;3.35;1.80;;;;;;;18.43;76.61;99733.78;4451019;32;33986;-57
2022/06/07 04:01:35;;;;;;;4.47;2.37;;;;;;;18.35;77.50;99737.16;4453720;32;33716;-57
2022/06/07 04:04:06;;;;;;;4.45;2.25;;;;;;;18.26;78.48;99736.19;4432115;32;36275;-57
2022/06/07 04:06:39;;;;;;;4.35;1.90;;;;;;;18.44;77.62;99732.91;4456002;32;32992;-57
2022/06/07 04:09:08;;;;;;;5.93;2.40;;;;;;;18.29;78.43;99727.47;4451800;32;33713;-57
2022/06/07 04:11:36;;;;;;;4.32;2.20;;;;;;;18.37;77.91;99719.69;4448701;32;33679;-58
2022/06/07 04:14:04;;;;;;;3.70;2.10;;;;;;;18.51;77.15;99718.13;4450729;32;34080;-57
2022/06/07 04:16:32;;;;;;;4.22;2.00;;;;;;;18.53;76.70;99721.66;4435157;32;33369;-57
2022/06/07 04:19:00;;;;;;;3.62;1.80;;;;;;;19.48;73.17;99710.31;4461366;32;34372;-57
2022/06/07 04:21:27;;;;;;;6.78;2.22;;;;;;;20.23;70.07;99698.47;4447542;32;33702;-57
2022/06/07 04:23:57;;;;;;;5.68;2.03;;;;;;;19.34;73.13;99703.19;4450169;32;33334;-57
2022/06/07 04:26:26;;;;;;;3.95;2.00;;;;;;;19.00;75.50;99702.91;4443458;32;33506;-58
2022/06/07 04:28:56;;;;;;;3.45;1.95;;;;;;;18.86;76.27;99707.16;4453765;32;34720;-57
2022/06/07 04:31:25;;;;;;;3.22;2.05;;;;;;;18.90;76.42;99705.44;4446802;32;34694;-56
2022/06/07 04:33:57;;;;;;;6.03;2.00;;;;;;;19.23;74.13;99700.47;4443791;32;34047;-57
2022/06/07 04:36:27;;;;;;;4.00;1.92;;;;;;;19.65;73.21;99692.91;4448809;32;33425;-58
2022/06/07 04:38:57;;;;;;;4.28;1.60;;;;;;;20.11;70.69;99693.19;4451717;32;33467;-57
2022/06/07 04:41:26;;;;;;;3.55;1.75;;;;;;;20.71;68.84;99695.16;4447637;32;32835;-57
2022/06/07 04:43:55;;;;;;;4.35;1.60;;;;;;;21.04;67.67;99693.44;4447340;32;34574;-57
2022/06/07 04:46:26;;;;;;;4.15;1.62;;;;;;;21.43;66.42;99691.66;4447906;32;32896;-57
2022/06/07 04:48:54;;;;;;;4.57;1.73;;;;;;;21.15;67.49;99697.84;4458756;32;33889;-57
2022/06/07 04:51:28;;;;;;;5.60;1.98;;;;;;;20.57;69.51;99687.16;4451659;32;33876;-57
2022/06/07 04:53:59;;;;;;;5.28;1.90;;;;;;;20.32;70.44;99694.13;4453413;32;34234;-57
2022/06/07 04:56:33;;;;;;;7.03;2.10;;;;;;;20.17;71.44;99698.47;4454687;32;33479;-57
2022/06/07 04:59:03;;;;;;;3.87;1.75;;;;;;;20.16;71.70;99707.22;4456137;32;34078;-57
2022/06/07 05:01:39;;;;;;;3.22;1.75;;;;;;;20.28;71.53;99700.25;4448533;32;34023;-57
2022/06/07 05:04:07;;;;;;;3.50;1.90;;;;;;;21.29;68.27;99696.97;4450232;32;34375;-57
2022/06/07 05:06:39;;;;;;;2.70;1.62;;;;;;;21.56;67.03;99694.31;4447106;32;33563;-57
2022/06/07 05:09:17;;;;;;;3.50;1.90;;;;;;;22.09;65.02;99695.03;4451511;32;34511;-57
2022/06/07 05:11:47;;;;;;;2.70;1.70;;;;;;;22.29;64.07;99697.66;4425041;32;33998;-57
2022/06/07 05:14:16;;;;;;;3.65;1.58;;;;;;;22.36;64.03;99698.47;4448310;32;34526;-57
2022/06/07 05:16:44;;;;;;;4.10;1.70;;;;;;;21.80;66.02;99692.50;4439879;32;31851;-57
2022/06/07 05:19:13;;;;;;;4.47;1.77;;;;;;;21.12;68.51;99702.22;4453429;32;33635;-57
2022/06/07 05:21:42;;;;;;;4.68;1.80;;;;;;;21.62;66.91;99703.97;4454237;32;33981;-58
2022/06/07 05:24:10;;;;;;;3.65;1.90;;;;;;;21.68;66.41;99698.69;4458937;32;34461;-57
2022/06/07 05:26:48;;;;;;;5.05;1.90;;;;;;;21.53;66.67;99699.56;4450173;32;34197;-57
2022/06/07 05:29:22;;;;;;;2.70;1.50;;;;;;;21.87;65.21;99703.91;4449485;32;34567;-57
2022/06/07 05:31:50;;;;;;;3.37;1.52;;;;;;;21.86;64.92;99704.78;4437255;32;34053;-57
2022/06/07 05:34:18;;;;;;;3.78;1.70;;;;;;;22.31;64.23;99701.16;4452696;32;34643;-57
2022/06/07 05:36:48;;;;;;;4.50;1.70;;;;;;;22.49;62.79;99702.81;4453141;32;33021;-57
2022/06/07 05:39:20;;;;;;;2.35;1.50;;;;;;;22.72;63.05;99705.31;4448957;32;34365;-57
2022/06/07 05:41:49;;;;;;;3.05;1.60;;;;;;;23.66;58.56;99699.31;4453868;32;34195;-57
2022/06/07 05:44:17;;;;;;;3.50;1.37;;;;;;;23.50;58.84;99702.97;4444522;32;34893;-57
2022/06/07 05:46:46;;;;;;;3.92;1.70;;;;;;;23.84;57.70;99700.03;4447990;32;33271;-58
2022/06/07 05:49:16;;;;;;;3.62;1.65;;;;;;;23.62;58.72;99692.25;4447058;32;33723;-57
2022/06/07 05:51:46;;;;;;;3.35;1.60;;;;;;;23.63;59.83;99704.59;4438240;32;35172;-58
2022/06/07 05:54:15;;;;;;;4.93;1.85;;;;;;;24.39;57.34;99695.81;4452556;32;34185;-57
2022/06/07 05:56:43;;;;;;;4.50;2.20;;;;;;;24.65;56.47;99698.16;4451623;32;33746;-57
2022/06/07 05:59:10;;;;;;;4.78;2.10;;;;;;;23.84;58.38;99697.38;4444450;32;33895;-58
2022/06/07 06:01:38;;;;;;;3.08;2.00;;;;;;;24.43;56.81;99706.34;4448685;32;34350;-58
2022/06/07 06:04:08;;;;;;;3.42;1.73;;;;;;;23.29;60.07;99694.34;4453030;32;33843;-58
2022/06/07 06:06:37;;;;;;;4.30;1.90;;;;;;;24.33;56.80;99695.00;4439132;32;33977;-57
2022/06/07 06:11:54;;;;;;;4.28;1.90;;;;;;;23.50;58.13;99697.69;4448851;32;33961;-57
2022/06/07 06:14:23;;;;;;;3.35;1.60;;;;;;;24.39;56.08;99696.69;4447112;32;33915;-57
2022/06/07 06:16:52;;;;;;;3.08;1.62;;;;;;;24.95;54.63;99694.16;4453122;32;34066;-58
2022/06/07 06:19:21;;;;;;;4.82;1.92;;;;;;;24.97;54.20;99697.66;4454924;32;33806;-58
2022/06/07 06:21:49;;;;;;;2.90;1.62;;;;;;;24.37;55.91;99695.84;4444888;32;34452;-58
2022/06/07 06:24:23;;;;;;;3.15;1.65;;;;;;;24.72;54.81;99702.44;4443821;32;33906;-58
2022/06/07 06:26:54;;;;;;;2.75;1.62;;;;;;;25.14;53.26;99692.09;4448203;32;33133;-58
2022/06/07 06:29:24;;;;;;;3.62;1.90;;;;;;;25.70;50.87;99686.72;4430837;32;32277;-57
2022/06/07 06:31:53;;;;;;;2.70;1.60;;;;;;;24.76;53.83;99690.91;4427958;32;33334;-58
2022/06/07 06:34:22;;;;;;;5.80;1.60;;;;;;;25.16;52.64;99684.97;4449856;32;34357;-58
2022/06/07 06:36:50;;;;;;;2.90;1.85;;;;;;;25.49;52.13;99686.19;4456568;32;34271;-58
2022/06/07 06:39:20;;;;;;;3.22;1.70;;;;;;;25.39;52.71;99678.44;4456260;32;33092;-58
2022/06/07 06:41:48;;;;;;;4.57;1.60;;;;;;;25.29;52.01;99680.41;4435311;32;32661;-57
2022/06/07 06:44:17;;;;;;;2.90;1.85;;;;;;;24.52;53.37;99682.44;4447840;32;36149;-58
2022/06/07 06:46:46;;;;;;;3.00;1.83;;;;;;;24.53;54.25;99678.00;4448035;32;33510;-57
2022/06/07 06:49:15;;;;;;;3.25;1.80;;;;;;;25.18;52.39;99682.31;4457945;32;34618;-58
2022/06/07 06:51:43;;;;;;;4.62;1.83;;;;;;;24.97;52.01;99673.81;4460344;32;34008;-57
2022/06/07 06:54:13;;;;;;;3.17;1.48;;;;;;;25.19;51.83;99674.34;4453850;32;34193;-57
2022/06/07 06:56:42;;;;;;;2.92;1.37;;;;;;;25.48;50.67;99671.22;4451813;32;33922;-58
2022/06/07 06:59:10;;;;;;;2.37;1.60;;;;;;;25.64;50.45;99671.78;4446785;32;34798;-57
2022/06/07 07:01:39;;;;;;;3.55;1.60;;;;;;;26.40;48.18;99672.94;4444407;32;33980;-58
2022/06/07 07:04:13;;;;;;;4.65;1.65;;;;;;;26.51;47.76;99675.38;4445261;32;33783;-58
2022/06/07 07:06:40;;;;;;;4.65;1.58;;;;;;;25.70;48.97;99671.66;4447721;32;33388;-58
2022/06/07 07:09:09;;;;;;;3.40;1.70;;;;;;;25.74;49.07;99676.91;4439151;32;34020;-58
2022/06/07 07:11:40;;;;;;;3.35;1.60;;;;;;;24.89;50.34;99665.97;4443166;32;33593;-58
2022/06/07 07:14:10;;;;;;;2.95;1.67;;;;;;;25.13;51.91;99669.16;4438311;32;34442;-58
2022/06/07 07:16:41;;;;;;;3.50;1.87;;;;;;;25.19;50.57;99669.03;4459753;32;33584;-57
2022/06/07 07:19:11;;;;;;;3.72;1.90;;;;;;;25.12;50.71;99667.38;4438994;32;34601;-58
2022/06/07 07:21:42;;;;;;;3.17;1.75;;;;;;;24.83;51.47;99667.88;4450673;32;33874;-58
2022/06/07 07:24:15;;;;;;;3.05;1.73;;;;;;;26.30;47.50;99664.28;4457248;32;33850;-57
2022/06/07 07:26:44;;;;;;;2.30;1.45;;;;;;;25.87;50.10;99660.72;4444559;32;33276;-57
2022/06/07 07:29:14;;;;;;;2.83;1.40;;;;;;;25.76;48.76;99659.19;4459404;32;34594;-58
2022/06/07 07:31:42;;;;;;;3.65;1.60;;;;;;;25.58;50.04;99650.69;4449716;32;33718;-57
2022/06/07 07:34:14;;;;;;;3.45;1.80;;;;;;;25.69;48.96;99643.41;4441678;32;34053;-58
2022/06/07 07:36:45;;;;;;;7.82;1.83;;;;;;;25.69;48.84;99648.72;4455666;32;33517;-57
2022/06/07 07:39:22;;;;;;;3.40;1.50;;;;;;;26.13;48.93;99647.84;4457951;32;33750;-57
2022/06/07 07:41:52;;;;;;;2.58;1.60;;;;;;;25.65;47.63;99641.72;4445836;32;33674;-58
2022/06/07 07:44:21;;;;;;;4.60;1.70;;;;;;;26.17;47.45;99646.88;4431472;32;34167;-57
2022/06/07 07:46:55;;;;;;;4.20;1.85;;;;;;;26.48;47.23;99649.72;4430834;32;33440;-58
2022/06/07 07:49:23;;;;;;;3.55;1.50;;;;;;;26.45;47.25;99653.31;4450907;32;33899;-57
2022/06/07 07:51:53;;;;;;;4.50;1.80;;;;;;;26.44;46.60;99650.69;4435630;32;33857;-58
2022/06/07 07:54:24;;;;;;;3.08;1.50;;;;;;;27.00;46.11;99644.97;4437213;32;33737;-58
2022/06/07 07:56:53;;;;;;;2.65;1.48;;;;;;;27.03;44.65;99642.25;4439716;32;33194;-57
2022/06/07 07:59:20;;;;;;;4.53;1.50;;;;;;;27.76;43.78;99638.59;4441373;32;33492;-58
2022/06/07 08:01:50;;;;;;;3.95;1.50;;;;;;;27.90;43.70;99639.09;4446717;32;34578;-57
2022/06/07 08:04:18;;;;;;;4.93;1.30;;;;;;;27.56;43.23;99644.44;4451974;32;33863;-57
2022/06/07 08:06:46;;;;;;;1.83;1.37;;;;;;;27.50;42.46;99641.97;4434118;32;33493;-57
2022/06/07 08:09:14;;;;;;;2.97;1.55;;;;;;;27.99;40.93;99636.16;4456324;32;34393;-58
2022/06/07 08:11:42;;;;;;;4.22;1.70;;;;;;;28.64;39.39;99634.19;4457378;32;33940;-58
2022/06/07 08:14:14;;;;;;;3.58;1.73;;;;;;;29.12;39.42;99636.19;4457050;32;34546;-58
2022/06/07 08:16:42;;;;;;;2.92;1.50;;;;;;;28.77;39.11;99635.53;4458294;32;33979;-58
2022/06/07 08:19:10;;;;;;;3.85;1.58;;;;;;;29.14;40.12;99637.00;4448332;32;33868;-57
2022/06/07 08:21:38;;;;;;;2.35;1.40;;;;;;;28.73;39.11;99633.91;4453284;32;33887;-58
2022/06/07 08:24:07;;;;;;;2.42;1.40;;;;;;;29.87;38.51;99630.00;4435621;32;34662;-58
2022/06/07 08:26:34;;;;;;;1.95;1.20;;;;;;;30.14;37.60;99632.56;4439806;32;34363;-58
2022/06/07 08:29:03;;;;;;;2.87;1.58;;;;;;;29.85;37.29;99626.53;4453979;32;34024;-58
2022/06/07 08:31:32;;;;;;;3.22;1.50;;;;;;;29.90;37.41;99624.56;4446630;32;33921;-58
2022/06/07 08:39:34;;;;;;;2.62;1.30;;;;;;;30.62;35.56;99618.22;4434982;32;33189;-58
2022/06/07 08:42:26;;;;;;;3.28;1.50;;;;;;;30.47;34.22;99614.34;4455054;32;34084;-58
2022/06/07 08:44:57;;;;;;;5.07;1.55;;;;;;;30.92;34.57;99625.94;4439816;32;34581;-58
2022/06/07 08:47:50;;;;;;;4.68;1.62;;;;;;;29.50;37.01;99620.66;4433703;32;34396;-58
2022/06/07 08:50:22;;;;;;;3.05;1.17;;;;;;;30.94;35.25;99608.88;4449631;32;34403;-58
2022/06/07 08:52:52;;;;;;;2.87;1.10;;;;;;;30.85;34.38;99611.03;4444090;32;34594;-58
2022/06/07 08:55:26;;;;;;;3.87;1.58;;;;;;;30.89;34.45;99615.34;4439428;32;33796;-58
2022/06/07 08:58:00;;;;;;;2.35;1.30;;;;;;;31.22;34.35;99602.38;4449666;32;33474;-58
2022/06/07 09:00:31;;;;;;;4.40;1.40;;;;;;;31.24;35.17;99610.31;4435689;32;34257;-58
2022/06/07 09:03:01;;;;;;;3.17;1.50;;;;;;;31.32;32.98;99613.53;4454282;32;34601;-58
2022/06/07 09:05:29;;;;;;;6.40;1.30;;;;;;;31.05;34.01;99615.59;4442078;32;34197;-58
2022/06/07 09:07:58;;;;;;;3.17;1.60;;;;;;;31.55;32.91;99609.88;4453274;32;33436;-58
2022/06/07 09:13:17;;;;;;;3.37;1.48;;;;;;;30.90;34.61;99612.63;4460825;32;33914;-58
2022/06/07 09:15:48;;;;;;;5.00;1.92;;;;;;;31.85;32.81;99607.63;4445249;32;33523;-58
2022/06/07 09:18:19;;;;;;;3.75;1.50;;;;;;;30.89;32.68;99599.31;4437364;32;33569;-58
2022/06/07 09:20:50;;;;;;;4.32;1.30;;;;;;;29.18;36.73;99593.31;4439587;32;34758;-58
2022/06/07 09:23:27;;;;;;;3.05;1.20;;;;;;;29.45;36.01;99598.59;4453926;32;33625;-58
2022/06/07 09:25:58;;;;;;;4.15;1.30;;;;;;;30.61;35.22;99600.44;4448455;32;34645;-58
2022/06/07 09:28:28;;;;;;;6.50;1.27;;;;;;;31.61;33.38;99596.19;4449484;32;32463;-58
2022/06/07 09:31:12;;;;;;;4.53;1.67;;;;;;;31.91;33.16;99585.91;4445517;32;35414;-58
2022/06/07 09:34:04;;;;;;;2.65;1.20;;;;;;;31.27;31.78;99586.09;4449864;32;34552;-58
2022/06/07 09:36:43;;;;;;;2.53;1.17;;;;;;;31.50;33.26;99585.97;4437072;32;32110;-58
2022/06/07 09:39:15;;;;;;;7.18;1.50;;;;;;;32.07;30.66;99574.50;4448652;32;33053;-58
2022/06/07 09:41:57;;;;;;;2.33;1.48;;;;;;;32.86;30.66;99568.84;4436931;32;33807;-58
2022/06/07 09:44:30;;;;;;;3.87;1.65;;;;;;;32.20;32.09;99570.28;4435045;32;33672;-57
2022/06/07 09:47:00;;;;;;;6.32;1.70;;;;;;;29.82;33.58;99578.56;4452819;32;34574;-58
2022/06/07 09:49:48;;;;;;;3.65;1.80;;;;;;;29.45;35.31;99571.91;4462944;32;33314;-58
2022/06/07 09:52:25;;;;;;;4.72;1.42;;;;;;;29.46;36.31;99576.31;4426595;32;34327;-58
2022/06/07 09:55:15;;;;;;;4.43;1.40;;;;;;;29.75;35.54;99572.59;4431443;32;34719;-57
2022/06/07 09:58:13;;;;;;;3.92;1.48;;;;;;;30.91;33.91;99568.03;4439485;32;34000;-58
2022/06/07 10:00:48;;;;;;;5.07;1.30;;;;;;;31.00;32.86;99564.94;4442467;32;33336;-58
2022/06/07 10:03:26;;;;;;;1.80;1.12;;;;;;;31.34;33.62;99561.66;4436486;32;33564;-58
2022/06/07 10:06:11;;;;;;;3.90;1.58;;;;;;;31.25;31.66;99564.75;4441106;32;34036;-58
2022/06/07 10:09:03;;;;;;;1.77;1.12;;;;;;;29.94;33.05;99556.75;4436200;32;33932;-58
2022/06/07 10:11:50;;;;;;;3.83;1.30;;;;;;;31.60;31.19;99545.41;4439377;32;33591;-58
2022/06/07 10:14:44;;;;;;;1.75;0.98;;;;;;;30.95;32.39;99557.13;4448574;32;34729;-58
2022/06/07 10:17:30;;;;;;;2.55;1.25;;;;;;;30.54;34.23;99550.84;4438990;32;33513;-58
2022/06/07 10:19:58;;;;;;;2.05;1.12;;;;;;;29.85;33.01;99546.44;4421069;32;33714;-57
2022/06/07 10:22:43;;;;;;;3.35;1.15;;;;;;;30.77;34.28;99542.72;4443922;32;34034;-57
2022/06/07 10:25:31;;;;;;;2.35;1.10;;;;;;;31.91;31.91;99537.69;4421761;32;32400;-58
2022/06/07 10:28:20;;;;;;;2.85;1.30;;;;;;;32.43;30.64;99538.78;4455570;32;33577;-58
2022/06/07 10:30:55;;;;;;;2.53;1.50;;;;;;;31.33;33.24;99540.31;4453498;32;33887;-59
2022/06/07 10:33:54;;;;;;;3.85;1.67;;;;;;;29.95;36.91;99539.78;4447844;32;33403;-59
2022/06/07 10:37:00;;;;;;;6.32;1.90;;;;;;;30.48;35.99;99540.38;4436124;32;33662;-58
2022/06/07 10:39:43;;;;;;;3.05;1.48;;;;;;;29.41;38.24;99532.91;4449532;32;34657;-58
2022/06/07 10:42:34;;;;;;;2.67;1.30;;;;;;;29.07;36.35;99526.13;4445106;32;34616;-58
2022/06/07 10:45:02;;;;;;;3.20;1.40;;;;;;;29.48;36.21;99526.44;4452139;32;33503;-58
2022/06/07 10:47:49;;;;;;;4.80;1.60;;;;;;;28.81;37.59;99529.69;4452115;32;33601;-58
2022/06/07 10:50:33;;;;;;;3.47;1.45;;;;;;;29.71;36.92;99527.34;4431004;32;33987;-58
2022/06/07 10:53:20;;;;;;;;;;;;;;;30.76;35.68;99508.03;4441242;32;34338;-58
2022/06/07 10:55:58;;;;;;;2.87;1.20;;;;;;;31.36;33.73;99508.94;4451615;32;33721;-58
2022/06/07 10:58:55;;;;;;;2.55;1.20;;;;;;;31.03;34.08;99510.47;4452566;32;35024;-59
2022/06/07 11:01:50;;;;;;;2.00;1.10;;;;;;;29.81;35.74;99503.91;4434618;32;33694;-58
2022/06/07 11:10:21;;;;;;;3.00;1.05;;;;;;;31.23;32.88;99490.84;4441705;32;32566;-58
2022/06/07 11:12:59;;;;;;;2.90;1.00;;;;;;;32.19;31.63;99485.47;4436856;32;33954;-59
2022/06/07 11:15:34;;;;;;;2.37;0.90;;;;;;;32.50;29.52;99481.25;4459214;32;33997;-58
2022/06/07 11:18:24;;;;;;;1.70;1.10;;;;;;;32.08;30.58;99485.97;4434536;32;33298;-58
2022/06/07 11:21:01;;;;;;;1.20;0.80;;;;;;;31.11;31.14;99485.09;4451394;32;34648;-59
2022/06/07 11:23:44;;;;;;;2.50;1.30;;;;;;;30.98;31.48;99481.22;4451990;32;33808;-59
2022/06/07 11:26:16;;;;;;;4.15;1.27;;;;;;;29.94;33.65;99487.31;4453024;32;33506;-59
2022/06/07 11:28:46;;;;;;;3.25;1.20;;;;;;;30.25;33.83;99478.06;4445961;32;32463;-59
2022/06/07 11:31:43;;;;;;;3.03;0.98;;;;;;;31.40;31.45;99472.19;4437115;32;34016;-59
2022/06/07 11:34:13;;;;;;;3.30;1.17;;;;;;;31.94;31.62;99467.87;4427627;32;33068;-59
2022/06/07 11:36:43;;;;;;;3.92;1.40;;;;;;;30.73;32.15;99460.91;4434802;32;34667;-59
2022/06/07 11:39:30;;;;;;;3.12;1.12;;;;;;;30.29;34.85;99455.62;4452357;32;32983;-58
2022/06/07 11:42:28;;;;;;;3.08;1.20;;;;;;;30.17;33.76;99462.34;4444176;32;33528;-57
2022/06/07 11:45:22;;;;;;;3.37;1.30;;;;;;;29.11;34.98;99469.09;4454609;32;34290;-58
2022/06/07 11:48:08;;;;;;;4.10;1.52;;;;;;;29.16;34.57;99460.94;4442102;32;33637;-58
2022/06/07 11:50:43;;;;;;;2.92;1.00;;;;;;;29.82;33.88;99445.06;4455014;32;33321;-58
2022/06/07 11:53:24;;;;;;;2.83;1.30;;;;;;;29.63;33.56;99444.03;4434604;32;33812;-58
2022/06/07 11:56:01;;;;;;;3.00;1.25;;;;;;;29.17;35.76;99436.87;4447200;32;34561;-57
2022/06/07 11:58:50;;;;;;;2.60;1.33;;;;;;;28.62;36.48;99444.16;4449780;32;34147;-58
2022/06/07 12:01:38;;;;;;;2.05;1.10;;;;;;;28.47;36.64;99444.66;4451833;32;33449;-58
2022/06/07 12:04:36;;;;;;;2.40;1.30;;;;;;;29.02;36.60;99442.75;4452330;32;33659;-58
2022/06/07 12:07:29;;;;;;;1.92;1.20;;;;;;;29.19;34.79;99434.16;4451810;32;33368;-58
2022/06/07 12:10:00;;;;;;;1.65;1.10;;;;;;;29.13;34.21;99432.59;4443145;32;34337;-58
2022/06/07 12:12:38;;;;;;;3.53;1.23;;;;;;;29.86;32.83;99424.47;4425785;32;33319;-58
2022/06/07 12:15:17;;;;;;;2.72;1.30;;;;;;;30.30;31.65;99430.63;4447661;32;33896;-59
2022/06/07 12:17:56;;;;;;;8.02;1.77;;;;;;;30.11;31.06;99419.84;4432002;32;34443;-58
2022/06/07 12:20:33;;;;;;;3.87;1.50;;;;;;;30.98;31.85;99422.41;4453108;32;32742;-59
2022/06/07 12:23:28;;;;;;;2.03;1.02;;;;;;;29.70;33.29;99418.84;4435039;32;32765;-59
2022/06/07 12:25:59;;;;;;;1.98;1.10;;;;;;;29.19;33.52;99429.69;4424538;32;34939;-58